sensor_id;sensor_type;location;lat;lon;timestamp;pressure;altitude;pressure_sealevel;temperature;humidity
51299;BME280;37382;45.192;9.790;2023-02-26T00:01:30;99295.88;;;11.04;100.00
51299;BME280;37382;45.192;9.790;2023-02-26T00:04:00;99297.06;;;10.97;100.00
51299;BME280;37382;45.192;9.790;2023-02-26T00:06:32;99294.34;;;10.85;100.00
51299;BME280;37382;45.192;9.790;2023-02-26T00:09:02;99286.41;;;10.83;100.00
51299;BME280;37382;45.192;9.790;2023-02-26T00:11:30;99284.53;;;10.96;100.00
51299;BME280;37382;45.192;9.790;2023-02-26T00:13:59;99290.69;;;10.91;100.00
51299;BME280;37382;45.192;9.790;2023-02-26T00:16:28;99296.47;;;10.83;100.00
51299;BME280;37382;45.192;9.790;2023-02-26T00:18:58;99293.72;;;10.59;100.00
51299;BME280;37382;45.192;9.790;2023-02-26T00:21:27;99294.31;;;10.61;100.00
51299;BME280;37382;45.192;9.790;2023-02-26T00:23:56;99293.63;;;10.66;100.00
51299;BME280;37382;45.192;9.790;2023-02-26T00:26:25;99295.94;;;10.50;100.00
51299;BME280;37382;45.192;9.790;2023-02-26T00:28:54;99294.75;;;10.46;100.00
51299;BME280;37382;45.192;9.790;2023-02-26T00:31:23;99295.34;;;10.48;100.00
51299;BME280;37382;45.192;9.790;2023-02-26T00:33:53;99288.34;;;10.41;100.00
51299;BME280;37382;45.192;9.790;2023-02-26T00:42:13;99297.28;;;10.72;100.00
51299;BME280;37382;45.192;9.790;2023-02-26T00:44:42;99281.91;;;10.77;100.00
51299;BME280;37382;45.192;9.790;2023-02-26T00:47:38;99282.75;;;10.66;100.00
51299;BME280;37382;45.192;9.790;2023-02-26T00:50:17;99280.50;;;10.63;100.00
51299;BME280;37382;45.192;9.790;2023-02-26T00:55:37;99265.97;;;11.04;100.00
51299;BME280;37382;45.192;9.790;2023-02-26T00:58:04;99266.06;;;11.10;100.00
51299;BME280;37382;45.192;9.790;2023-02-26T01:00:32;99255.53;;;11.13;100.00
51299;BME280;37382;45.192;9.790;2023-02-26T01:03:00;99254.34;;;11.21;100.00
51299;BME280;37382;45.192;9.790;2023-02-26T01:05:28;99251.63;;;11.21;100.00
51299;BME280;37382;45.192;9.790;2023-02-26T01:08:14;99252.78;;;11.25;100.00
51299;BME280;37382;45.192;9.790;2023-02-26T01:10:46;99249.38;;;11.06;100.00
51299;BME280;37382;45.192;9.790;2023-02-26T01:13:14;99252.47;;;10.98;100.00
51299;BME280;37382;45.192;9.790;2023-02-26T01:15:46;99249.84;;;10.79;100.00
51299;BME280;37382;45.192;9.790;2023-02-26T01:18:27;99249.16;;;10.84;100.00
51299;BME280;37382;45.192;9.790;2023-02-26T01:21:00;99237.69;;;10.82;100.00
51299;BME280;37382;45.192;9.790;2023-02-26T01:23:32;99238.63;;;10.76;100.00
51299;BME280;37382;45.192;9.790;2023-02-26T01:26:09;99241.19;;;10.47;100.00
51299;BME280;37382;45.192;9.790;2023-02-26T01:28:38;99243.66;;;10.37;100.00
51299;BME280;37382;45.192;9.790;2023-02-26T01:31:20;99243.66;;;10.37;100.00
51299;BME280;37382;45.192;9.790;2023-02-26T01:33:58;99237.06;;;10.44;100.00
51299;BME280;37382;45.192;9.790;2023-02-26T01:36:33;99229.09;;;10.31;100.00
51299;BME280;37382;45.192;9.790;2023-02-26T01:39:17;99227.66;;;10.28;100.00
51299;BME280;37382;45.192;9.790;2023-02-26T01:41:50;99221.09;;;10.36;100.00
51299;BME280;37382;45.192;9.790;2023-02-26T01:44:31;99230.66;;;9.96;100.00
51299;BME280;37382;45.192;9.790;2023-02-26T01:47:25;99222.78;;;10.07;100.00
51299;BME280;37382;45.192;9.790;2023-02-26T01:49:57;99225.59;;;10.12;100.00
51299;BME280;37382;45.192;9.790;2023-02-26T01:55:21;99226.72;;;9.92;100.00
51299;BME280;37382;45.192;9.790;2023-02-26T01:57:51;99219.16;;;9.83;100.00
51299;BME280;37382;45.192;9.790;2023-02-26T02:00:20;99217.97;;;9.60;100.00
51299;BME280;37382;45.192;9.790;2023-02-26T02:02:49;99218.53;;;9.50;100.00
51299;BME280;37382;45.192;9.790;2023-02-26T02:05:23;99213.56;;;9.47;100.00
51299;BME280;37382;45.192;9.790;2023-02-26T02:07:52;99216.63;;;9.51;100.00
51299;BME280;37382;45.192;9.790;2023-02-26T02:10:20;99213.78;;;9.76;100.00
51299;BME280;37382;45.192;9.790;2023-02-26T02:23:56;99199.16;;;9.47;100.00
51299;BME280;37382;45.192;9.790;2023-02-26T02:32:14;99217.53;;;8.89;100.00
51299;BME280;37382;45.192;9.790;2023-02-26T02:34:52;99227.97;;;8.67;100.00
51299;BME280;37382;45.192;9.790;2023-02-26T02:37:28;99227.94;;;8.42;100.00
51299;BME280;37382;45.192;9.790;2023-02-26T02:40:00;99216.03;;;8.17;100.00
51299;BME280;37382;45.192;9.790;2023-02-26T02:42:34;99219.59;;;8.18;100.00
51299;BME280;37382;45.192;9.790;2023-02-26T02:45:13;99228.00;;;8.35;100.00
51299;BME280;37382;45.192;9.790;2023-02-26T02:47:46;99230.22;;;8.51;100.00
51299;BME280;37382;45.192;9.790;2023-02-26T02:50:24;99232.56;;;8.09;100.00
51299;BME280;37382;45.192;9.790;2023-02-26T02:53:00;99237.75;;;8.43;100.00
51299;BME280;37382;45.192;9.790;2023-02-26T02:55:33;99233.13;;;8.50;100.00
51299;BME280;37382;45.192;9.790;2023-02-26T02:58:17;99242.72;;;7.82;100.00
51299;BME280;37382;45.192;9.790;2023-02-26T03:00:55;99247.50;;;7.87;100.00
51299;BME280;37382;45.192;9.790;2023-02-26T03:03:33;99251.44;;;7.91;100.00
51299;BME280;37382;45.192;9.790;2023-02-26T03:06:02;99241.25;;;7.86;100.00
51299;BME280;37382;45.192;9.790;2023-02-26T03:08:34;99243.31;;;7.45;100.00
51299;BME280;37382;45.192;9.790;2023-02-26T03:11:03;99247.06;;;7.44;100.00
51299;BME280;37382;45.192;9.790;2023-02-26T03:13:31;99249.06;;;7.62;100.00
51299;BME280;37382;45.192;9.790;2023-02-26T03:27:05;99277.03;;;8.27;100.00
51299;BME280;37382;45.192;9.790;2023-02-26T03:32:10;99279.66;;;8.72;100.00
51299;BME280;37382;45.192;9.790;2023-02-26T03:35:05;99280.56;;;8.84;100.00
51299;BME280;37382;45.192;9.790;2023-02-26T03:37:38;99279.53;;;8.85;100.00
51299;BME280;37382;45.192;9.790;2023-02-26T03:40:30;99293.13;;;9.04;100.00
51299;BME280;37382;45.192;9.790;2023-02-26T03:43:18;99292.31;;;8.78;100.00
51299;BME280;37382;45.192;9.790;2023-02-26T03:45:50;99299.88;;;9.20;100.00
51299;BME280;37382;45.192;9.790;2023-02-26T03:48:21;99303.31;;;9.08;100.00
51299;BME280;37382;45.192;9.790;2023-02-26T03:50:53;99299.56;;;9.10;100.00
51299;BME280;37382;45.192;9.790;2023-02-26T03:54:04;99306.44;;;9.31;100.00
51299;BME280;37382;45.192;9.790;2023-02-26T03:56:43;99308.84;;;9.20;100.00
51299;BME280;37382;45.192;9.790;2023-02-26T03:59:30;99307.94;;;9.26;100.00
51299;BME280;37382;45.192;9.790;2023-02-26T04:02:17;99310.31;;;9.16;100.00
51299;BME280;37382;45.192;9.790;2023-02-26T04:05:00;99314.13;;;9.34;100.00
51299;BME280;37382;45.192;9.790;2023-02-26T04:07:30;99321.50;;;9.45;100.00
51299;BME280;37382;45.192;9.790;2023-02-26T04:09:58;99319.25;;;9.60;100.00
51299;BME280;37382;45.192;9.790;2023-02-26T04:12:28;99324.16;;;9.70;100.00
51299;BME280;37382;45.192;9.790;2023-02-26T04:14:56;99319.78;;;9.88;100.00
51299;BME280;37382;45.192;9.790;2023-02-26T04:17:25;99323.34;;;9.88;100.00
51299;BME280;37382;45.192;9.790;2023-02-26T04:19:53;99347.81;;;10.00;100.00
51299;BME280;37382;45.192;9.790;2023-02-26T04:22:20;99340.75;;;9.62;100.00
51299;BME280;37382;45.192;9.790;2023-02-26T04:24:48;99351.19;;;9.21;100.00
51299;BME280;37382;45.192;9.790;2023-02-26T04:27:17;99363.94;;;8.96;100.00
51299;BME280;37382;45.192;9.790;2023-02-26T04:29:44;99363.38;;;8.87;100.00
51299;BME280;37382;45.192;9.790;2023-02-26T04:32:12;99363.66;;;8.79;100.00
51299;BME280;37382;45.192;9.790;2023-02-26T04:34:40;99375.03;;;8.62;100.00
51299;BME280;37382;45.192;9.790;2023-02-26T04:37:08;99376.34;;;8.53;100.00
51299;BME280;37382;45.192;9.790;2023-02-26T04:39:36;99380.75;;;8.41;100.00
51299;BME280;37382;45.192;9.790;2023-02-26T04:42:05;99387.06;;;8.28;100.00
51299;BME280;37382;45.192;9.790;2023-02-26T04:44:34;99392.50;;;8.28;100.00
51299;BME280;37382;45.192;9.790;2023-02-26T04:47:01;99404.63;;;8.18;100.00
51299;BME280;37382;45.192;9.790;2023-02-26T04:49:30;99410.03;;;8.18;100.00
51299;BME280;37382;45.192;9.790;2023-02-26T04:51:58;99414.59;;;8.25;100.00
51299;BME280;37382;45.192;9.790;2023-02-26T04:54:25;99418.81;;;8.14;100.00
51299;BME280;37382;45.192;9.790;2023-02-26T04:56:53;99429.66;;;8.14;100.00
51299;BME280;37382;45.192;9.790;2023-02-26T04:59:20;99423.41;;;8.07;100.00
51299;BME280;37382;45.192;9.790;2023-02-26T05:01:48;99430.25;;;8.16;100.00
51299;BME280;37382;45.192;9.790;2023-02-26T05:04:15;99431.56;;;8.00;100.00
51299;BME280;37382;45.192;9.790;2023-02-26T05:06:47;99438.91;;;7.79;100.00
51299;BME280;37382;45.192;9.790;2023-02-26T05:09:14;99451.41;;;7.80;100.00
51299;BME280;37382;45.192;9.790;2023-02-26T05:11:43;99447.03;;;7.79;100.00
51299;BME280;37382;45.192;9.790;2023-02-26T05:14:11;99442.44;;;7.73;100.00
51299;BME280;37382;45.192;9.790;2023-02-26T05:16:40;99450.38;;;7.75;100.00
51299;BME280;37382;45.192;9.790;2023-02-26T05:19:07;99451.44;;;7.60;100.00
51299;BME280;37382;45.192;9.790;2023-02-26T05:21:35;99449.97;;;7.58;100.00
51299;BME280;37382;45.192;9.790;2023-02-26T05:24:04;99454.56;;;7.51;100.00
51299;BME280;37382;45.192;9.790;2023-02-26T05:26:33;99460.41;;;7.41;100.00
51299;BME280;37382;45.192;9.790;2023-02-26T05:29:01;99461.03;;;7.50;100.00
51299;BME280;37382;45.192;9.790;2023-02-26T05:31:29;99475.16;;;7.52;100.00
51299;BME280;37382;45.192;9.790;2023-02-26T05:33:57;99471.44;;;7.53;100.00
51299;BME280;37382;45.192;9.790;2023-02-26T05:36:25;99480.59;;;7.52;100.00
51299;BME280;37382;45.192;9.790;2023-02-26T05:38:53;99480.38;;;7.46;100.00
51299;BME280;37382;45.192;9.790;2023-02-26T05:41:21;99498.91;;;7.50;100.00
51299;BME280;37382;45.192;9.790;2023-02-26T05:43:48;99496.00;;;7.51;100.00
51299;BME280;37382;45.192;9.790;2023-02-26T05:46:15;99497.25;;;7.55;100.00
51299;BME280;37382;45.192;9.790;2023-02-26T05:48:43;99496.63;;;7.53;100.00
51299;BME280;37382;45.192;9.790;2023-02-26T05:51:12;99505.56;;;7.40;100.00
51299;BME280;37382;45.192;9.790;2023-02-26T05:53:39;99504.72;;;7.33;100.00
51299;BME280;37382;45.192;9.790;2023-02-26T05:56:06;99502.88;;;7.40;100.00
51299;BME280;37382;45.192;9.790;2023-02-26T05:58:34;99509.72;;;7.29;100.00
51299;BME280;37382;45.192;9.790;2023-02-26T06:01:01;99507.03;;;7.50;100.00
51299;BME280;37382;45.192;9.790;2023-02-26T06:03:29;99508.06;;;7.35;100.00
51299;BME280;37382;45.192;9.790;2023-02-26T06:05:57;99505.97;;;7.30;100.00
51299;BME280;37382;45.192;9.790;2023-02-26T06:08:25;99504.50;;;7.21;100.00
51299;BME280;37382;45.192;9.790;2023-02-26T06:10:52;99500.97;;;7.27;100.00
51299;BME280;37382;45.192;9.790;2023-02-26T06:13:20;99514.69;;;7.26;100.00
51299;BME280;37382;45.192;9.790;2023-02-26T06:15:51;99524.09;;;7.23;100.00
51299;BME280;37382;45.192;9.790;2023-02-26T06:18:19;99526.56;;;7.11;100.00
51299;BME280;37382;45.192;9.790;2023-02-26T06:20:47;99531.31;;;6.96;100.00
51299;BME280;37382;45.192;9.790;2023-02-26T06:23:14;99534.00;;;6.96;100.00
51299;BME280;37382;45.192;9.790;2023-02-26T06:25:42;99542.47;;;6.80;100.00
51299;BME280;37382;45.192;9.790;2023-02-26T06:28:09;99549.09;;;6.70;100.00
51299;BME280;37382;45.192;9.790;2023-02-26T06:30:37;99566.94;;;6.65;100.00
51299;BME280;37382;45.192;9.790;2023-02-26T06:33:04;99573.97;;;6.59;100.00
51299;BME280;37382;45.192;9.790;2023-02-26T06:35:31;99578.97;;;6.55;100.00
51299;BME280;37382;45.192;9.790;2023-02-26T06:37:59;99609.47;;;6.49;100.00
51299;BME280;37382;45.192;9.790;2023-02-26T06:40:27;99610.59;;;6.62;100.00
51299;BME280;37382;45.192;9.790;2023-02-26T06:42:55;99628.69;;;6.68;100.00
51299;BME280;37382;45.192;9.790;2023-02-26T06:45:23;99627.38;;;6.50;100.00
51299;BME280;37382;45.192;9.790;2023-02-26T06:47:51;99642.09;;;6.48;100.00
51299;BME280;37382;45.192;9.790;2023-02-26T06:50:19;99636.06;;;6.46;100.00
51299;BME280;37382;45.192;9.790;2023-02-26T06:52:47;99645.72;;;6.33;100.00
51299;BME280;37382;45.192;9.790;2023-02-26T06:55:15;99655.00;;;6.52;100.00
51299;BME280;37382;45.192;9.790;2023-02-26T06:57:42;99641.50;;;6.24;100.00
51299;BME280;37382;45.192;9.790;2023-02-26T07:00:10;99654.22;;;6.30;100.00
51299;BME280;37382;45.192;9.790;2023-02-26T07:02:37;99661.53;;;6.36;100.00
51299;BME280;37382;45.192;9.790;2023-02-26T07:05:05;99671.19;;;6.17;100.00
51299;BME280;37382;45.192;9.790;2023-02-26T07:07:33;99677.09;;;6.28;100.00
51299;BME280;37382;45.192;9.790;2023-02-26T07:10:00;99680.69;;;6.13;100.00
51299;BME280;37382;45.192;9.790;2023-02-26T07:12:28;99691.75;;;6.18;100.00
51299;BME280;37382;45.192;9.790;2023-02-26T07:14:56;99690.13;;;6.24;100.00
51299;BME280;37382;45.192;9.790;2023-02-26T07:17:23;99696.38;;;6.25;100.00
51299;BME280;37382;45.192;9.790;2023-02-26T07:19:51;99707.50;;;6.15;100.00
51299;BME280;37382;45.192;9.790;2023-02-26T07:22:19;99715.47;;;6.23;100.00
51299;BME280;37382;45.192;9.790;2023-02-26T07:24:48;99729.34;;;6.41;100.00
51299;BME280;37382;45.192;9.790;2023-02-26T07:27:18;99735.97;;;6.39;100.00
51299;BME280;37382;45.192;9.790;2023-02-26T07:29:45;99731.38;;;6.61;100.00
51299;BME280;37382;45.192;9.790;2023-02-26T07:32:12;99730.56;;;6.39;100.00
51299;BME280;37382;45.192;9.790;2023-02-26T07:34:40;99747.59;;;6.39;100.00
51299;BME280;37382;45.192;9.790;2023-02-26T07:37:08;99751.53;;;6.37;100.00
51299;BME280;37382;45.192;9.790;2023-02-26T07:39:35;99749.94;;;6.43;100.00
51299;BME280;37382;45.192;9.790;2023-02-26T07:42:03;99760.00;;;6.55;100.00
51299;BME280;37382;45.192;9.790;2023-02-26T07:44:32;99760.53;;;6.44;100.00
51299;BME280;37382;45.192;9.790;2023-02-26T07:47:00;99769.31;;;6.53;100.00
51299;BME280;37382;45.192;9.790;2023-02-26T07:49:28;99768.56;;;6.37;100.00
51299;BME280;37382;45.192;9.790;2023-02-26T07:51:56;99773.59;;;6.40;100.00
51299;BME280;37382;45.192;9.790;2023-02-26T07:54:24;99760.47;;;6.37;100.00
51299;BME280;37382;45.192;9.790;2023-02-26T07:56:51;99764.19;;;6.36;100.00
51299;BME280;37382;45.192;9.790;2023-02-26T07:59:19;99760.97;;;6.48;100.00
51299;BME280;37382;45.192;9.790;2023-02-26T08:01:47;99768.44;;;6.46;100.00
51299;BME280;37382;45.192;9.790;2023-02-26T08:04:15;99769.59;;;6.36;100.00
51299;BME280;37382;45.192;9.790;2023-02-26T08:06:42;99786.63;;;6.58;100.00
51299;BME280;37382;45.192;9.790;2023-02-26T08:09:10;99779.41;;;6.66;100.00
51299;BME280;37382;45.192;9.790;2023-02-26T08:11:37;99793.78;;;6.73;100.00
51299;BME280;37382;45.192;9.790;2023-02-26T08:14:06;99794.53;;;6.60;100.00
51299;BME280;37382;45.192;9.790;2023-02-26T08:16:34;99787.53;;;6.66;100.00
51299;BME280;37382;45.192;9.790;2023-02-26T08:19:02;99800.66;;;6.69;100.00
51299;BME280;37382;45.192;9.790;2023-02-26T08:21:29;99808.56;;;6.70;100.00
51299;BME280;37382;45.192;9.790;2023-02-26T08:23:57;99801.09;;;6.72;100.00
51299;BME280;37382;45.192;9.790;2023-02-26T08:26:25;99816.41;;;6.65;100.00
51299;BME280;37382;45.192;9.790;2023-02-26T08:28:53;99820.53;;;6.61;100.00
51299;BME280;37382;45.192;9.790;2023-02-26T08:31:21;99822.84;;;6.64;100.00
51299;BME280;37382;45.192;9.790;2023-02-26T08:33:49;99832.69;;;6.72;100.00
51299;BME280;37382;45.192;9.790;2023-02-26T08:36:17;99841.50;;;6.59;100.00
51299;BME280;37382;45.192;9.790;2023-02-26T08:38:44;99845.69;;;6.62;100.00
51299;BME280;37382;45.192;9.790;2023-02-26T08:41:11;99844.84;;;6.83;100.00
51299;BME280;37382;45.192;9.790;2023-02-26T08:43:39;99842.91;;;6.76;100.00
51299;BME280;37382;45.192;9.790;2023-02-26T08:46:06;99839.91;;;6.65;100.00
51299;BME280;37382;45.192;9.790;2023-02-26T08:48:34;99841.97;;;6.91;100.00
51299;BME280;37382;45.192;9.790;2023-02-26T08:51:02;99848.16;;;6.56;100.00
51299;BME280;37382;45.192;9.790;2023-02-26T08:53:29;99857.72;;;6.81;100.00
51299;BME280;37382;45.192;9.790;2023-02-26T08:55:57;99855.47;;;6.63;100.00
51299;BME280;37382;45.192;9.790;2023-02-26T08:58:25;99850.63;;;6.80;100.00
51299;BME280;37382;45.192;9.790;2023-02-26T09:00:52;99861.94;;;6.68;100.00
51299;BME280;37382;45.192;9.790;2023-02-26T09:03:20;99866.59;;;6.53;100.00
51299;BME280;37382;45.192;9.790;2023-02-26T09:05:47;99867.31;;;6.40;100.00
51299;BME280;37382;45.192;9.790;2023-02-26T09:08:16;99876.53;;;6.46;100.00
51299;BME280;37382;45.192;9.790;2023-02-26T09:10:43;99881.72;;;6.47;100.00
51299;BME280;37382;45.192;9.790;2023-02-26T09:13:10;99865.94;;;6.29;100.00
51299;BME280;37382;45.192;9.790;2023-02-26T09:15:38;99880.72;;;6.33;100.00
51299;BME280;37382;45.192;9.790;2023-02-26T09:18:05;99898.22;;;6.16;100.00
51299;BME280;37382;45.192;9.790;2023-02-26T09:20:37;99900.47;;;6.12;100.00
51299;BME280;37382;45.192;9.790;2023-02-26T09:23:05;99895.69;;;6.14;100.00
51299;BME280;37382;45.192;9.790;2023-02-26T09:25:35;99895.16;;;6.04;100.00
51299;BME280;37382;45.192;9.790;2023-02-26T09:28:03;99907.13;;;6.16;100.00
51299;BME280;37382;45.192;9.790;2023-02-26T09:30:31;99898.13;;;6.09;100.00
51299;BME280;37382;45.192;9.790;2023-02-26T09:32:58;99898.13;;;5.94;100.00
51299;BME280;37382;45.192;9.790;2023-02-26T09:35:26;99889.59;;;6.27;100.00
51299;BME280;37382;45.192;9.790;2023-02-26T09:37:54;99895.38;;;6.24;100.00
51299;BME280;37382;45.192;9.790;2023-02-26T09:40:35;99892.75;;;6.09;100.00
51299;BME280;37382;45.192;9.790;2023-02-26T09:51:57;99909.06;;;6.59;100.00
51299;BME280;37382;45.192;9.790;2023-02-26T09:54:31;99913.06;;;6.63;100.00
51299;BME280;37382;45.192;9.790;2023-02-26T09:57:03;99919.97;;;6.66;100.00
51299;BME280;37382;45.192;9.790;2023-02-26T09:59:32;99919.75;;;6.89;100.00
51299;BME280;37382;45.192;9.790;2023-02-26T10:02:11;99920.78;;;6.88;100.00
51299;BME280;37382;45.192;9.790;2023-02-26T10:05:10;99930.56;;;6.89;100.00
51299;BME280;37382;45.192;9.790;2023-02-26T10:07:52;99929.34;;;7.13;100.00
51299;BME280;37382;45.192;9.790;2023-02-26T10:12:50;99924.91;;;7.05;100.00
51299;BME280;37382;45.192;9.790;2023-02-26T10:15:22;99914.66;;;7.01;100.00
51299;BME280;37382;45.192;9.790;2023-02-26T10:18:10;99919.22;;;7.00;100.00
51299;BME280;37382;45.192;9.790;2023-02-26T10:23:40;99915.16;;;7.11;100.00
51299;BME280;37382;45.192;9.790;2023-02-26T10:40:14;99914.41;;;7.87;100.00
51299;BME280;37382;45.192;9.790;2023-02-26T10:45:49;99912.88;;;7.71;100.00
51299;BME280;37382;45.192;9.790;2023-02-26T10:51:13;99902.53;;;7.88;100.00
51299;BME280;37382;45.192;9.790;2023-02-26T10:53:46;99913.44;;;8.01;100.00
51299;BME280;37382;45.192;9.790;2023-02-26T10:59:12;99917.78;;;7.96;100.00
51299;BME280;37382;45.192;9.790;2023-02-26T11:01:43;99908.78;;;7.89;100.00
51299;BME280;37382;45.192;9.790;2023-02-26T11:04:13;99908.09;;;8.15;100.00
51299;BME280;37382;45.192;9.790;2023-02-26T11:06:47;99916.03;;;8.16;100.00
51299;BME280;37382;45.192;9.790;2023-02-26T11:09:37;99917.63;;;8.04;100.00
51299;BME280;37382;45.192;9.790;2023-02-26T11:14:39;99925.84;;;8.31;100.00
51299;BME280;37382;45.192;9.790;2023-02-26T11:17:16;99927.97;;;8.35;100.00
51299;BME280;37382;45.192;9.790;2023-02-26T11:20:14;99928.09;;;8.20;100.00
51299;BME280;37382;45.192;9.790;2023-02-26T11:22:47;99929.72;;;8.08;100.00
51299;BME280;37382;45.192;9.790;2023-02-26T11:25:19;99927.25;;;8.13;100.00
51299;BME280;37382;45.192;9.790;2023-02-26T11:27:54;99926.38;;;8.06;100.00
51299;BME280;37382;45.192;9.790;2023-02-26T11:30:26;99934.03;;;8.37;100.00
51299;BME280;37382;45.192;9.790;2023-02-26T11:32:57;99932.63;;;8.07;100.00
51299;BME280;37382;45.192;9.790;2023-02-26T11:35:26;99935.53;;;8.05;100.00
51299;BME280;37382;45.192;9.790;2023-02-26T11:37:59;99939.09;;;8.06;100.00
51299;BME280;37382;45.192;9.790;2023-02-26T11:40:34;99938.13;;;8.20;100.00
51299;BME280;37382;45.192;9.790;2023-02-26T11:43:07;99936.41;;;8.12;98.02
51299;BME280;37382;45.192;9.790;2023-02-26T11:45:38;99941.03;;;8.25;99.80
51299;BME280;37382;45.192;9.790;2023-02-26T11:48:14;99950.84;;;8.26;95.41
51299;BME280;37382;45.192;9.790;2023-02-26T11:50:47;99946.91;;;8.29;95.12
51299;BME280;37382;45.192;9.790;2023-02-26T11:53:19;99940.19;;;8.18;94.00
51299;BME280;37382;45.192;9.790;2023-02-26T11:55:58;99947.72;;;8.23;94.87
51299;BME280;37382;45.192;9.790;2023-02-26T11:58:29;99938.72;;;8.15;92.82
51299;BME280;37382;45.192;9.790;2023-02-26T12:01:02;99944.00;;;8.30;96.92
51299;BME280;37382;45.192;9.790;2023-02-26T12:03:32;99932.22;;;8.10;90.31
51299;BME280;37382;45.192;9.790;2023-02-26T12:06:01;99935.81;;;8.17;90.26
51299;BME280;37382;45.192;9.790;2023-02-26T12:08:34;99940.00;;;8.19;90.22
51299;BME280;37382;45.192;9.790;2023-02-26T12:19:33;99930.53;;;7.67;98.03
51299;BME280;37382;45.192;9.790;2023-02-26T12:22:33;99939.44;;;7.54;96.63
51299;BME280;37382;45.192;9.790;2023-02-26T12:25:34;99934.91;;;7.61;97.51
51299;BME280;37382;45.192;9.790;2023-02-26T12:28:32;99936.94;;;7.59;94.67
51299;BME280;37382;45.192;9.790;2023-02-26T12:42:10;99951.09;;;7.90;88.80
51299;BME280;37382;45.192;9.790;2023-02-26T12:47:34;99967.13;;;7.91;88.99
51299;BME280;37382;45.192;9.790;2023-02-26T13:17:25;99952.03;;;8.10;77.83
51299;BME280;37382;45.192;9.790;2023-02-26T13:19:59;99972.81;;;7.96;74.36
51299;BME280;37382;45.192;9.790;2023-02-26T13:22:41;99971.97;;;7.96;75.71
51299;BME280;37382;45.192;9.790;2023-02-26T13:25:29;99964.78;;;8.16;78.27
51299;BME280;37382;45.192;9.790;2023-02-26T13:28:00;99959.06;;;7.98;76.10
51299;BME280;37382;45.192;9.790;2023-02-26T13:30:35;99973.34;;;7.85;81.17
51299;BME280;37382;45.192;9.790;2023-02-26T13:33:15;99958.41;;;7.61;84.28
51299;BME280;37382;45.192;9.790;2023-02-26T13:35:44;99973.66;;;7.69;85.00
51299;BME280;37382;45.192;9.790;2023-02-26T13:45:06;99981.13;;;7.60;90.22
51299;BME280;37382;45.192;9.790;2023-02-26T13:50:41;100009.00;;;7.60;96.35
51299;BME280;37382;45.192;9.790;2023-02-26T13:55:51;100024.31;;;7.46;91.27
51299;BME280;37382;45.192;9.790;2023-02-26T14:00:58;100024.19;;;7.33;100.00
51299;BME280;37382;45.192;9.790;2023-02-26T14:03:45;100043.16;;;7.61;100.00
51299;BME280;37382;45.192;9.790;2023-02-26T14:08:54;100051.34;;;7.68;100.00
51299;BME280;37382;45.192;9.790;2023-02-26T14:14:39;100048.66;;;7.75;96.88
51299;BME280;37382;45.192;9.790;2023-02-26T14:19:40;100058.72;;;7.53;88.96
51299;BME280;37382;45.192;9.790;2023-02-26T14:22:31;100069.97;;;7.35;88.23
51299;BME280;37382;45.192;9.790;2023-02-26T14:27:48;100083.75;;;7.40;86.38
51299;BME280;37382;45.192;9.790;2023-02-26T14:30:18;100087.91;;;7.36;86.44
51299;BME280;37382;45.192;9.790;2023-02-26T14:35:36;100109.06;;;7.32;87.00
51299;BME280;37382;45.192;9.790;2023-02-26T14:38:33;100105.53;;;7.32;89.21
51299;BME280;37382;45.192;9.790;2023-02-26T14:41:36;100131.25;;;7.06;93.37
51299;BME280;37382;45.192;9.790;2023-02-26T14:44:22;100126.16;;;6.96;100.00
51299;BME280;37382;45.192;9.790;2023-02-26T14:46:52;100126.53;;;6.93;100.00
51299;BME280;37382;45.192;9.790;2023-02-26T14:49:27;100144.53;;;7.01;100.00
51299;BME280;37382;45.192;9.790;2023-02-26T14:52:09;100142.81;;;7.15;100.00
51299;BME280;37382;45.192;9.790;2023-02-26T15:03:34;100174.34;;;6.92;100.00
51299;BME280;37382;45.192;9.790;2023-02-26T15:06:31;100194.41;;;6.83;100.00
51299;BME280;37382;45.192;9.790;2023-02-26T15:09:23;100196.53;;;6.73;100.00
51299;BME280;37382;45.192;9.790;2023-02-26T15:17:25;100199.81;;;6.68;100.00
51299;BME280;37382;45.192;9.790;2023-02-26T15:26:03;100230.56;;;6.52;100.00
51299;BME280;37382;45.192;9.790;2023-02-26T15:28:34;100241.38;;;6.52;100.00
51299;BME280;37382;45.192;9.790;2023-02-26T15:31:06;100237.25;;;6.41;100.00
51299;BME280;37382;45.192;9.790;2023-02-26T15:33:35;100239.00;;;6.34;100.00
51299;BME280;37382;45.192;9.790;2023-02-26T15:36:07;100257.44;;;6.31;100.00
51299;BME280;37382;45.192;9.790;2023-02-26T15:38:40;100261.72;;;5.94;100.00
51299;BME280;37382;45.192;9.790;2023-02-26T15:41:08;100264.59;;;6.00;100.00
51299;BME280;37382;45.192;9.790;2023-02-26T15:43:40;100264.13;;;5.88;100.00
51299;BME280;37382;45.192;9.790;2023-02-26T15:46:10;100262.91;;;5.99;100.00
51299;BME280;37382;45.192;9.790;2023-02-26T15:48:39;100272.34;;;5.95;100.00
51299;BME280;37382;45.192;9.790;2023-02-26T15:51:12;100287.88;;;5.93;100.00
51299;BME280;37382;45.192;9.790;2023-02-26T15:53:44;100282.31;;;5.95;100.00
51299;BME280;37382;45.192;9.790;2023-02-26T15:56:18;100288.00;;;6.08;100.00
51299;BME280;37382;45.192;9.790;2023-02-26T15:58:52;100293.03;;;6.11;100.00
51299;BME280;37382;45.192;9.790;2023-02-26T16:01:22;100293.09;;;5.95;100.00
51299;BME280;37382;45.192;9.790;2023-02-26T16:03:52;100289.25;;;5.97;100.00
51299;BME280;37382;45.192;9.790;2023-02-26T16:06:34;100294.28;;;5.92;100.00
51299;BME280;37382;45.192;9.790;2023-02-26T16:09:04;100297.69;;;5.94;100.00
51299;BME280;37382;45.192;9.790;2023-02-26T16:11:38;100307.44;;;6.03;100.00
51299;BME280;37382;45.192;9.790;2023-02-26T16:14:15;100301.84;;;6.05;100.00
51299;BME280;37382;45.192;9.790;2023-02-26T16:16:50;100302.03;;;6.03;100.00
51299;BME280;37382;45.192;9.790;2023-02-26T16:19:32;100317.16;;;6.13;100.00
51299;BME280;37382;45.192;9.790;2023-02-26T16:22:08;100330.00;;;6.11;100.00
51299;BME280;37382;45.192;9.790;2023-02-26T16:24:39;100332.81;;;6.17;100.00